Hlavní strana
METAR-TAF:

METAR-TAF

Letiště :

Rostov na Donu, Rusko

zeměpisná šířka: 47-29-38N, zeměpisná délka: 039-55-29E, výška: 65 m

Aktuální stav počasí

Zpráva byla vytvořena před 36 minutami, v 23:30 UTC
Východní vítr 19 kt
Teplota -8°C
Vlhkost vzduchu 52%
Tlak 1037 hPa
Viditelnost 10 km a více
Žádná oblačnost pod 1500 m, nevyskytují se cumulonimby.

METAR: URRP 222330Z 09010MPS CAVOK M08/M16 Q1037 WS R05 R05/CLRD70 NOSIG RMK QFE774/1032

Čas: 04:06 (00:06 UTC)

Předpověď počasí

Zpráva byla vytvořena před 1 hodinou a 10 minutami, v 22:56 UTC
Předpověď platná od 23 v 00 UTC do 23 v 24 UTC
Východoseverovýchodní vítr 19 kt s nárazy do 31 kt
Viditelnost 10 km a více
Polojasno ve výšce 2000 ft
Dočasný
od 23 v 00 UTC do 23 v 24 UTC
Východní vítr 23 kt s nárazy do 37 kt

TAF: URRP 222256Z 2300/2324 07010G16MPS 9999 SCT020 TEMPO 2300/2324 09012G19MPS

Stav a předpovědi počasí z více než 4 000 letišť (zprávy METAR a TAF).

Červené a žluté tečky na mapě představují dostupné meteorologické stanice.

Když kurzor umístíte na tečku, zobrazí se název stanice.

Pak kliknutím zobrazíte stav a předpověď počasí.

Chcete-li změnit mapu, kliknutím na zelené tlačítko se znaménkem +mapu přiblížíte, kliknutím na zelené tlačítko se znaménkem – mapu oddálíte a kliknutím na zelené šipky přejdete na sousední mapy.


METAR-TAF: